createdAt,value
2022-08-01T00:00:52.632Z,1001.95
2022-08-01T00:01:53.225Z,1001.91
2022-08-01T00:02:52.668Z,1001.91
2022-08-01T00:03:52.601Z,1001.93
2022-08-01T00:04:52.589Z,1001.96
2022-08-01T00:05:52.611Z,1001.94
2022-08-01T00:06:52.571Z,1001.94
2022-08-01T00:07:52.569Z,1001.93
2022-08-01T00:08:52.546Z,1001.95
2022-08-01T00:09:52.537Z,1001.90
2022-08-01T00:10:52.522Z,1001.93
2022-08-01T00:11:56.350Z,1001.97
2022-08-01T00:12:52.539Z,1001.93
2022-08-01T00:13:52.488Z,1001.96
2022-08-01T00:14:52.478Z,1001.93
2022-08-01T00:15:54.073Z,1001.97
2022-08-01T00:16:52.455Z,1001.97
2022-08-01T00:17:52.472Z,1001.97
2022-08-01T00:18:52.443Z,1001.99
2022-08-01T00:19:52.421Z,1001.98
2022-08-01T00:20:52.442Z,1001.97
2022-08-01T00:21:52.464Z,1001.96
2022-08-01T00:22:52.417Z,1001.98
2022-08-01T00:23:52.376Z,1001.98
2022-08-01T00:24:52.390Z,1001.96
2022-08-01T00:25:52.382Z,1001.96
2022-08-01T00:26:52.370Z,1001.99
2022-08-01T00:27:52.341Z,1001.96
2022-08-01T00:28:52.325Z,1001.98
2022-08-01T00:30:11.411Z,1001.97
2022-08-01T00:30:52.304Z,1001.99
2022-08-01T00:31:52.365Z,1001.95
2022-08-01T00:32:52.288Z,1001.96
2022-08-01T00:33:52.267Z,1001.96
2022-08-01T00:34:52.267Z,1001.99
2022-08-01T00:35:52.244Z,1001.98
2022-08-01T00:36:52.234Z,1002.01
2022-08-01T00:37:52.225Z,1002.03
2022-08-01T00:38:52.216Z,1002.07
2022-08-01T00:39:52.204Z,1001.98
2022-08-01T00:40:52.224Z,1002.04
2022-08-01T00:42:01.910Z,1002.04
2022-08-01T00:42:52.201Z,1001.99
2022-08-01T00:43:52.156Z,1002.03
2022-08-01T00:44:52.152Z,1002.08
2022-08-01T00:45:52.134Z,1002.07
2022-08-01T00:46:52.139Z,1002.06
2022-08-01T00:47:55.285Z,1002.07
2022-08-01T00:48:52.148Z,1002.12
2022-08-01T00:49:52.105Z,1002.05
2022-08-01T00:50:52.109Z,1002.06
2022-08-01T00:51:52.067Z,1002.10
2022-08-01T00:52:52.058Z,1002.09
2022-08-01T00:53:52.589Z,1002.14
2022-08-01T00:54:52.066Z,1002.09
2022-08-01T00:55:52.057Z,1002.07
2022-08-01T00:56:52.017Z,1002.11
2022-08-01T00:58:05.650Z,1002.13
2022-08-01T00:58:51.989Z,1002.11
2022-08-01T00:59:51.979Z,1002.13
2022-08-01T01:00:53.440Z,1002.10
2022-08-01T01:01:51.985Z,1002.12
2022-08-01T01:02:51.948Z,1002.13
2022-08-01T01:04:00.010Z,1002.11
2022-08-01T01:04:51.925Z,1002.10
2022-08-01T01:05:51.962Z,1002.13
2022-08-01T01:06:51.903Z,1002.11
2022-08-01T01:07:51.895Z,1002.15
2022-08-01T01:08:51.893Z,1002.10
2022-08-01T01:09:51.870Z,1002.10
2022-08-01T01:10:51.870Z,1002.09
2022-08-01T01:11:51.873Z,1002.08
2022-08-01T01:12:51.838Z,1002.07
2022-08-01T01:13:51.824Z,1002.08
2022-08-01T01:14:51.836Z,1002.07
2022-08-01T01:15:51.803Z,1002.07
2022-08-01T01:16:51.966Z,1002.05
2022-08-01T01:17:52.023Z,1002.10
2022-08-01T01:18:51.771Z,1002.11
2022-08-01T01:19:51.784Z,1002.11
2022-08-01T01:20:51.749Z,1002.06
2022-08-01T01:21:51.741Z,1002.07
2022-08-01T01:22:51.771Z,1002.11
2022-08-01T01:23:51.741Z,1002.06
2022-08-01T01:24:51.710Z,1002.14
2022-08-01T01:25:51.699Z,1002.12
2022-08-01T01:26:51.685Z,1002.10
2022-08-01T01:27:51.698Z,1002.13
2022-08-01T01:28:51.671Z,1002.17
2022-08-01T01:29:58.749Z,1002.14
2022-08-01T01:30:51.669Z,1002.14
2022-08-01T01:31:51.656Z,1002.14
2022-08-01T01:32:51.622Z,1002.16
2022-08-01T01:33:51.633Z,1002.15
2022-08-01T01:34:51.602Z,1002.15
2022-08-01T01:35:51.582Z,1002.17
2022-08-01T01:36:51.626Z,1002.13
2022-08-01T01:37:51.617Z,1002.17
2022-08-01T01:38:51.551Z,1002.18
2022-08-01T01:39:54.415Z,1002.22
2022-08-01T01:40:51.534Z,1002.22
2022-08-01T01:41:51.519Z,1002.17
2022-08-01T01:42:51.506Z,1002.24
2022-08-01T01:43:51.528Z,1002.20
2022-08-01T01:44:51.490Z,1002.19
2022-08-01T01:45:52.937Z,1002.21
2022-08-01T01:46:51.464Z,1002.20
2022-08-01T01:47:51.451Z,1002.21
2022-08-01T01:48:51.498Z,1002.17
2022-08-01T01:49:51.433Z,1002.21
2022-08-01T01:50:51.420Z,1002.22
2022-08-01T01:51:57.415Z,1002.23
2022-08-01T01:52:51.404Z,1002.26
2022-08-01T01:53:51.415Z,1002.24
2022-08-01T01:54:51.435Z,1002.27
2022-08-01T01:55:51.364Z,1002.21
2022-08-01T01:56:51.383Z,1002.23
2022-08-01T01:57:51.343Z,1002.18
2022-08-01T01:58:51.333Z,1002.24
2022-08-01T01:59:51.333Z,1002.24
2022-08-01T02:00:51.312Z,1002.23
2022-08-01T02:02:06.033Z,1002.24
2022-08-01T02:02:51.357Z,1002.21
2022-08-01T02:03:51.287Z,1002.24
2022-08-01T02:04:51.272Z,1002.24
2022-08-01T02:05:51.258Z,1002.23
2022-08-01T02:06:51.247Z,1002.26
2022-08-01T02:07:51.231Z,1002.26
2022-08-01T02:08:51.257Z,1002.26
2022-08-01T02:09:51.212Z,1002.27
2022-08-01T02:10:51.239Z,1002.24
2022-08-01T02:12:07.492Z,1002.24
2022-08-01T02:12:51.182Z,1002.25
2022-08-01T02:13:51.171Z,1002.22
2022-08-01T02:14:51.153Z,1002.23
2022-08-01T02:15:59.173Z,1002.26
2022-08-01T02:16:51.142Z,1002.21
2022-08-01T02:17:51.117Z,1002.23
2022-08-01T02:18:51.112Z,1002.24
2022-08-01T02:19:51.101Z,1002.21
2022-08-01T02:20:53.093Z,1002.21
2022-08-01T02:21:51.111Z,1002.21
2022-08-01T02:22:51.095Z,1002.19
2022-08-01T02:23:51.055Z,1002.18
2022-08-01T02:24:51.047Z,1002.20
2022-08-01T02:26:10.775Z,1002.23
2022-08-01T02:26:51.021Z,1002.19
2022-08-01T02:27:51.009Z,1002.25
2022-08-01T02:28:51.029Z,1002.28
2022-08-01T02:29:50.984Z,1002.21
2022-08-01T02:30:50.977Z,1002.27
2022-08-01T02:31:50.971Z,1002.27
2022-08-01T02:32:50.973Z,1002.32
2022-08-01T02:33:50.988Z,1002.26
2022-08-01T02:34:50.942Z,1002.31
2022-08-01T02:36:30.452Z,1002.28
2022-08-01T02:36:50.915Z,1002.28
2022-08-01T02:37:50.900Z,1002.31
2022-08-01T02:38:50.888Z,1002.28
2022-08-01T02:39:50.879Z,1002.27
2022-08-01T02:40:50.898Z,1002.28
2022-08-01T02:41:50.873Z,1002.26
2022-08-01T02:42:50.847Z,1002.29
2022-08-01T02:43:53.432Z,1002.28
2022-08-01T02:44:50.836Z,1002.27
2022-08-01T02:45:50.815Z,1002.28
2022-08-01T02:46:50.806Z,1002.30
2022-08-01T02:47:50.790Z,1002.31
2022-08-01T02:48:50.842Z,1002.26
2022-08-01T02:49:53.669Z,1002.29
2022-08-01T02:50:50.753Z,1002.28
2022-08-01T02:51:50.765Z,1002.27
2022-08-01T02:52:50.739Z,1002.30
2022-08-01T02:53:50.720Z,1002.32
2022-08-01T02:54:50.733Z,1002.30
2022-08-01T02:55:50.702Z,1002.36
2022-08-01T02:56:50.716Z,1002.32
2022-08-01T02:57:52.512Z,1002.34
2022-08-01T02:58:50.687Z,1002.32
2022-08-01T02:59:50.656Z,1002.34
2022-08-01T03:00:50.645Z,1002.36
2022-08-01T03:01:50.781Z,1002.34
2022-08-01T03:02:50.636Z,1002.37
2022-08-01T03:03:50.609Z,1002.31
2022-08-01T03:04:55.159Z,1002.32
2022-08-01T03:05:50.589Z,1002.32
2022-08-01T03:06:50.586Z,1002.32
2022-08-01T03:07:50.609Z,1002.34
2022-08-01T03:08:50.565Z,1002.34
2022-08-01T03:09:50.555Z,1002.34
2022-08-01T03:10:50.579Z,1002.36
2022-08-01T03:11:50.523Z,1002.36
2022-08-01T03:12:50.519Z,1002.40
2022-08-01T03:13:50.499Z,1002.41
2022-08-01T03:14:50.504Z,1002.41
2022-08-01T03:15:50.477Z,1002.39
2022-08-01T03:16:50.499Z,1002.44
2022-08-01T03:17:50.454Z,1002.45
2022-08-01T03:18:50.440Z,1002.45
2022-08-01T03:19:50.432Z,1002.44
2022-08-01T03:20:50.432Z,1002.43
2022-08-01T03:21:50.452Z,1002.44
2022-08-01T03:22:50.403Z,1002.46
2022-08-01T03:23:54.987Z,1002.44
2022-08-01T03:24:50.860Z,1002.44
2022-08-01T03:25:50.370Z,1002.45
2022-08-01T03:26:50.400Z,1002.44
2022-08-01T03:27:50.354Z,1002.47
2022-08-01T03:28:50.332Z,1002.46
2022-08-01T03:29:50.358Z,1002.49
2022-08-01T03:30:50.313Z,1002.55
2022-08-01T03:31:50.300Z,1002.49
2022-08-01T03:32:50.325Z,1002.50
2022-08-01T03:33:50.287Z,1002.57
2022-08-01T03:34:50.288Z,1002.53
2022-08-01T03:35:50.255Z,1002.56
2022-08-01T03:36:50.280Z,1002.52
2022-08-01T03:38:14.848Z,1002.57
2022-08-01T03:38:50.227Z,1002.53
2022-08-01T03:39:50.207Z,1002.59
2022-08-01T03:40:50.198Z,1002.57
2022-08-01T03:41:52.564Z,1002.60
2022-08-01T03:42:50.180Z,1002.59
2022-08-01T03:43:50.220Z,1002.61
2022-08-01T03:44:50.176Z,1002.55
2022-08-01T03:45:50.143Z,1002.54
2022-08-01T03:46:50.132Z,1002.53
2022-08-01T03:47:50.142Z,1002.54
2022-08-01T03:48:50.223Z,1002.56
2022-08-01T03:49:50.103Z,1002.54
2022-08-01T03:50:50.087Z,1002.57
2022-08-01T03:51:50.075Z,1002.60
2022-08-01T03:52:50.068Z,1002.61
2022-08-01T03:53:50.061Z,1002.58
2022-08-01T03:54:50.068Z,1002.62
2022-08-01T03:55:50.041Z,1002.56
2022-08-01T03:56:50.025Z,1002.59
2022-08-01T03:57:50.007Z,1002.59
2022-08-01T03:58:50.459Z,1002.59
2022-08-01T03:59:50.050Z,1002.62
2022-08-01T04:00:49.981Z,1002.60
2022-08-01T04:01:50.049Z,1002.62
2022-08-01T04:02:49.965Z,1002.61
2022-08-01T04:03:49.950Z,1002.63
2022-08-01T04:04:49.931Z,1002.60
2022-08-01T04:05:49.956Z,1002.62
2022-08-01T04:06:49.909Z,1002.67
2022-08-01T04:07:49.896Z,1002.66
2022-08-01T04:08:49.886Z,1002.66
2022-08-01T04:09:49.887Z,1002.62
2022-08-01T04:10:50.404Z,1002.65
2022-08-01T04:11:49.854Z,1002.67
2022-08-01T04:12:49.848Z,1002.64
2022-08-01T04:13:49.828Z,1002.64
2022-08-01T04:14:49.820Z,1002.70
2022-08-01T04:15:49.831Z,1002.70
2022-08-01T04:16:49.804Z,1002.72
2022-08-01T04:17:49.790Z,1002.74
2022-08-01T04:18:49.774Z,1002.73
2022-08-01T04:19:49.762Z,1002.74
2022-08-01T04:20:49.806Z,1002.75
2022-08-01T04:21:49.758Z,1002.76
2022-08-01T04:22:49.737Z,1002.76
2022-08-01T04:23:51.446Z,1002.74
2022-08-01T04:24:54.552Z,1002.77
2022-08-01T04:25:49.694Z,1002.78
2022-08-01T04:26:49.696Z,1002.77
2022-08-01T04:27:51.472Z,1002.78
2022-08-01T04:28:49.665Z,1002.77
2022-08-01T04:29:49.650Z,1002.80
2022-08-01T04:30:49.649Z,1002.82
2022-08-01T04:31:49.667Z,1002.82
2022-08-01T04:32:49.624Z,1002.85
2022-08-01T04:33:49.608Z,1002.83
2022-08-01T04:34:49.594Z,1002.83
2022-08-01T04:36:02.554Z,1002.85
2022-08-01T04:36:49.573Z,1002.91
2022-08-01T04:37:49.615Z,1002.93
2022-08-01T04:38:49.553Z,1002.95
2022-08-01T04:39:50.271Z,1002.99
2022-08-01T04:40:49.529Z,1002.99
2022-08-01T04:41:49.514Z,1003.05
2022-08-01T04:42:49.505Z,1003.05
2022-08-01T04:43:49.533Z,1003.03
2022-08-01T04:44:49.485Z,1003.05
2022-08-01T04:45:49.483Z,1003.06
2022-08-01T04:46:49.476Z,1003.05
2022-08-01T04:47:49.449Z,1003.00
2022-08-01T04:48:49.488Z,1003.03
2022-08-01T04:49:49.554Z,1003.07
2022-08-01T04:50:49.417Z,1003.06
2022-08-01T04:51:49.431Z,1003.10
2022-08-01T04:52:49.402Z,1003.08
2022-08-01T04:53:49.386Z,1003.09
2022-08-01T04:54:49.373Z,1003.07
2022-08-01T04:55:49.360Z,1003.10
2022-08-01T04:56:49.362Z,1003.06
2022-08-01T04:57:49.342Z,1003.06
2022-08-01T04:58:49.350Z,1003.05
2022-08-01T04:59:49.358Z,1003.06
2022-08-01T05:00:49.356Z,1003.07
2022-08-01T05:01:49.374Z,1003.11
2022-08-01T05:02:49.289Z,1003.13
2022-08-01T05:03:49.273Z,1003.13
2022-08-01T05:04:49.303Z,1003.13
2022-08-01T05:05:49.273Z,1003.09
2022-08-01T05:06:49.395Z,1003.09
2022-08-01T05:07:49.224Z,1003.11
2022-08-01T05:08:49.452Z,1003.08
2022-08-01T05:09:49.206Z,1003.08
2022-08-01T05:10:49.196Z,1003.12
2022-08-01T05:11:49.203Z,1003.11
2022-08-01T05:12:49.204Z,1003.16
2022-08-01T05:13:49.163Z,1003.12
2022-08-01T05:14:49.170Z,1003.17
2022-08-01T05:15:49.140Z,1003.14
2022-08-01T05:16:49.161Z,1003.14
2022-08-01T05:17:49.144Z,1003.12
2022-08-01T05:18:49.111Z,1003.17
2022-08-01T05:19:49.173Z,1003.22
2022-08-01T05:20:49.091Z,1003.23
2022-08-01T05:21:49.081Z,1003.17
2022-08-01T05:22:49.081Z,1003.21
2022-08-01T05:23:49.057Z,1003.20
2022-08-01T05:24:49.196Z,1003.18
2022-08-01T05:25:56.841Z,1003.20
2022-08-01T05:26:49.021Z,1003.19
2022-08-01T05:27:51.085Z,1003.25
2022-08-01T05:28:48.998Z,1003.21
2022-08-01T05:29:48.983Z,1003.26
2022-08-01T05:30:48.977Z,1003.26
2022-08-01T05:31:48.964Z,1003.21
2022-08-01T05:32:48.970Z,1003.25
2022-08-01T05:33:48.964Z,1003.23
2022-08-01T05:34:48.930Z,1003.22
2022-08-01T05:35:49.473Z,1003.27
2022-08-01T05:36:48.928Z,1003.24
2022-08-01T05:37:48.927Z,1003.28
2022-08-01T05:38:48.884Z,1003.27
2022-08-01T05:39:48.886Z,1003.30
2022-08-01T05:40:48.862Z,1003.31
2022-08-01T05:41:48.849Z,1003.31
2022-08-01T05:42:48.881Z,1003.34
2022-08-01T05:43:48.853Z,1003.31
2022-08-01T05:44:48.826Z,1003.34
2022-08-01T05:45:48.877Z,1003.36
2022-08-01T05:46:48.796Z,1003.37
2022-08-01T05:47:48.783Z,1003.34
2022-08-01T05:48:48.843Z,1003.38
2022-08-01T05:49:48.765Z,1003.36
2022-08-01T05:50:48.762Z,1003.37
2022-08-01T05:51:48.770Z,1003.42
2022-08-01T05:52:48.757Z,1003.42
2022-08-01T05:53:48.718Z,1003.46
2022-08-01T05:54:48.796Z,1003.44
2022-08-01T05:55:48.714Z,1003.47
2022-08-01T05:56:48.685Z,1003.45
2022-08-01T05:57:48.698Z,1003.51
2022-08-01T05:58:48.668Z,1003.49
2022-08-01T05:59:48.650Z,1003.47
2022-08-01T06:00:48.645Z,1003.51
2022-08-01T06:01:48.685Z,1003.53
2022-08-01T06:02:48.650Z,1003.52
2022-08-01T06:03:48.604Z,1003.55
2022-08-01T06:04:48.660Z,1003.59
2022-08-01T06:05:48.582Z,1003.59
2022-08-01T06:06:48.575Z,1003.60
2022-08-01T06:07:48.559Z,1003.59
2022-08-01T06:08:48.562Z,1003.62
2022-08-01T06:09:48.539Z,1003.63
2022-08-01T06:10:48.566Z,1003.64
2022-08-01T06:11:48.518Z,1003.66
2022-08-01T06:12:48.510Z,1003.65
2022-08-01T06:13:49.037Z,1003.60
2022-08-01T06:14:48.492Z,1003.64
2022-08-01T06:15:48.470Z,1003.62
2022-08-01T06:16:48.882Z,1003.65
2022-08-01T06:17:48.485Z,1003.65
2022-08-01T06:18:48.458Z,1003.68
2022-08-01T06:19:48.429Z,1003.63
2022-08-01T06:20:48.421Z,1003.61
2022-08-01T06:21:48.413Z,1003.60
2022-08-01T06:22:52.588Z,1003.60
2022-08-01T06:23:48.384Z,1003.62
2022-08-01T06:24:48.429Z,1003.61
2022-08-01T06:25:48.359Z,1003.61
2022-08-01T06:26:48.349Z,1003.60
2022-08-01T06:27:48.338Z,1003.66
2022-08-01T06:28:48.332Z,1003.67
2022-08-01T06:29:50.279Z,1003.71
2022-08-01T06:30:48.341Z,1003.68
2022-08-01T06:31:48.302Z,1003.67
2022-08-01T06:32:48.287Z,1003.70
2022-08-01T06:33:48.272Z,1003.75
2022-08-01T06:34:48.266Z,1003.77
2022-08-01T06:35:48.285Z,1003.81
2022-08-01T06:36:48.277Z,1003.83
2022-08-01T06:37:48.320Z,1003.77
2022-08-01T06:38:48.277Z,1003.79
2022-08-01T06:39:48.204Z,1003.74
2022-08-01T06:40:48.197Z,1003.77
2022-08-01T06:41:48.231Z,1003.72
2022-08-01T06:42:48.175Z,1003.75
2022-08-01T06:43:48.182Z,1003.70
2022-08-01T06:44:48.154Z,1003.71
2022-08-01T06:45:48.193Z,1003.70
2022-08-01T06:46:48.131Z,1003.70
2022-08-01T06:47:50.567Z,1003.70
2022-08-01T06:48:48.177Z,1003.71
2022-08-01T06:49:48.103Z,1003.68
2022-08-01T06:50:48.089Z,1003.68
2022-08-01T06:51:48.087Z,1003.70
2022-08-01T06:52:48.089Z,1003.71
2022-08-01T06:53:48.062Z,1003.76
2022-08-01T06:54:48.084Z,1003.73
2022-08-01T06:55:48.039Z,1003.72
2022-08-01T06:56:48.026Z,1003.74
2022-08-01T06:57:48.018Z,1003.74
2022-08-01T06:58:48.007Z,1003.76
2022-08-01T06:59:54.286Z,1003.77
2022-08-01T07:00:48.007Z,1003.76
2022-08-01T07:01:47.994Z,1003.80
2022-08-01T07:02:48.246Z,1003.80
2022-08-01T07:03:53.320Z,1003.80
2022-08-01T07:04:47.937Z,1003.78
2022-08-01T07:05:47.925Z,1003.84
2022-08-01T07:06:47.942Z,1003.84
2022-08-01T07:07:47.927Z,1003.84
2022-08-01T07:08:47.940Z,1003.83
2022-08-01T07:09:47.910Z,1003.87
2022-08-01T07:10:47.877Z,1003.84
2022-08-01T07:11:47.859Z,1003.87
2022-08-01T07:12:47.850Z,1003.84
2022-08-01T07:13:47.854Z,1003.79
2022-08-01T07:14:47.830Z,1003.80
2022-08-01T07:15:47.821Z,1003.78
2022-08-01T07:16:47.805Z,1003.77
2022-08-01T07:17:47.794Z,1003.73
2022-08-01T07:18:47.811Z,1003.74
2022-08-01T07:19:47.806Z,1003.75
2022-08-01T07:20:52.645Z,1003.78
2022-08-01T07:21:50.040Z,1003.80
2022-08-01T07:22:48.328Z,1003.77
2022-08-01T07:23:47.734Z,1003.75
2022-08-01T07:24:47.755Z,1003.78
2022-08-01T07:25:49.492Z,1003.80
2022-08-01T07:26:53.087Z,1003.78
2022-08-01T07:27:47.815Z,1003.82
2022-08-01T07:28:47.681Z,1003.81
2022-08-01T07:29:47.728Z,1003.81
2022-08-01T07:30:47.661Z,1003.86
2022-08-01T07:31:47.668Z,1003.87
2022-08-01T07:32:47.635Z,1003.88
2022-08-01T07:33:48.460Z,1003.89
2022-08-01T07:34:47.618Z,1003.89
2022-08-01T07:35:47.603Z,1003.92
2022-08-01T07:36:47.591Z,1003.86
2022-08-01T07:37:48.956Z,1003.91
2022-08-01T07:38:47.652Z,1003.89
2022-08-01T07:39:47.561Z,1003.88
2022-08-01T07:40:47.548Z,1003.91
2022-08-01T07:42:06.627Z,1003.94
2022-08-01T07:42:47.527Z,1003.95
2022-08-01T07:43:56.643Z,1003.95
2022-08-01T07:44:47.512Z,1003.95
2022-08-01T07:45:47.498Z,1004.02
2022-08-01T07:46:47.488Z,1004.02
2022-08-01T07:47:47.472Z,1004.03
2022-08-01T07:48:47.558Z,1004.03
2022-08-01T07:49:47.546Z,1004.05
2022-08-01T07:50:47.480Z,1004.07
2022-08-01T07:52:03.934Z,1004.09
2022-08-01T07:52:47.453Z,1004.13
2022-08-01T07:53:47.430Z,1004.08
2022-08-01T07:54:52.038Z,1004.13
2022-08-01T07:55:47.407Z,1004.07
2022-08-01T07:56:47.382Z,1004.11
2022-08-01T07:57:47.371Z,1004.13
2022-08-01T07:58:47.920Z,1004.16
2022-08-01T07:59:47.348Z,1004.14
2022-08-01T08:00:47.338Z,1004.18
2022-08-01T08:01:47.379Z,1004.19
2022-08-01T08:02:47.347Z,1004.21
2022-08-01T08:03:47.355Z,1004.22
2022-08-01T08:04:49.207Z,1004.21
2022-08-01T08:05:58.269Z,1004.21
2022-08-01T08:06:47.268Z,1004.23
2022-08-01T08:07:47.261Z,1004.25
2022-08-01T08:08:47.258Z,1004.25
2022-08-01T08:09:51.218Z,1004.29
2022-08-01T08:10:47.228Z,1004.25
2022-08-01T08:11:48.281Z,1004.27
2022-08-01T08:12:47.214Z,1004.24
2022-08-01T08:13:47.226Z,1004.22
2022-08-01T08:14:47.284Z,1004.26
2022-08-01T08:15:48.301Z,1004.24
2022-08-01T08:16:47.232Z,1004.23
2022-08-01T08:17:54.992Z,1004.22
2022-08-01T08:18:47.151Z,1004.24
2022-08-01T08:19:47.141Z,1004.26
2022-08-01T08:20:47.119Z,1004.21
2022-08-01T08:21:47.115Z,1004.24
2022-08-01T08:22:47.129Z,1004.25
2022-08-01T08:23:47.098Z,1004.22
2022-08-01T08:24:47.261Z,1004.28
2022-08-01T08:25:47.069Z,1004.29
2022-08-01T08:26:47.056Z,1004.26
2022-08-01T08:27:47.089Z,1004.24
2022-08-01T08:28:47.037Z,1004.29
2022-08-01T08:29:47.050Z,1004.27
2022-08-01T08:30:47.061Z,1004.28
2022-08-01T08:31:52.328Z,1004.27
2022-08-01T08:32:46.998Z,1004.29
2022-08-01T08:33:46.989Z,1004.28
2022-08-01T08:34:46.973Z,1004.23
2022-08-01T08:35:53.897Z,1004.25
2022-08-01T08:36:47.675Z,1004.26
2022-08-01T08:37:47.802Z,1004.31
2022-08-01T08:38:46.937Z,1004.29
2022-08-01T08:39:46.955Z,1004.30
2022-08-01T08:40:46.914Z,1004.32
2022-08-01T08:41:49.598Z,1004.32
2022-08-01T08:42:48.465Z,1004.32
2022-08-01T08:43:46.888Z,1004.34
2022-08-01T08:44:46.917Z,1004.34
2022-08-01T08:45:58.222Z,1004.39
2022-08-01T08:46:46.866Z,1004.39
2022-08-01T08:47:46.979Z,1004.40
2022-08-01T08:48:46.835Z,1004.42
2022-08-01T08:49:46.869Z,1004.40
2022-08-01T08:50:46.818Z,1004.43
2022-08-01T08:51:46.809Z,1004.46
2022-08-01T08:52:46.809Z,1004.46
2022-08-01T08:53:46.793Z,1004.47
2022-08-01T08:54:46.775Z,1004.43
2022-08-01T08:55:55.985Z,1004.48
2022-08-01T08:56:46.750Z,1004.47
2022-08-01T08:57:46.751Z,1004.47
2022-08-01T08:58:46.728Z,1004.48
2022-08-01T08:59:46.763Z,1004.46
2022-08-01T09:00:46.736Z,1004.48
2022-08-01T09:01:46.713Z,1004.51
2022-08-01T09:02:46.736Z,1004.47
2022-08-01T09:03:46.688Z,1004.51
2022-08-01T09:04:46.669Z,1004.52
2022-08-01T09:05:46.686Z,1004.55
2022-08-01T09:06:46.654Z,1004.60
2022-08-01T09:07:46.644Z,1004.61
2022-08-01T09:08:46.627Z,1004.61
2022-08-01T09:09:46.632Z,1004.67
2022-08-01T09:10:46.607Z,1004.66
2022-08-01T09:11:57.602Z,1004.74
2022-08-01T09:12:46.650Z,1004.75
2022-08-01T09:13:46.585Z,1004.73
2022-08-01T09:14:46.578Z,1004.75
2022-08-01T09:15:46.570Z,1004.74
2022-08-01T09:16:48.913Z,1004.69
2022-08-01T09:17:46.550Z,1004.73
2022-08-01T09:18:53.431Z,1004.75
2022-08-01T09:19:46.528Z,1004.75
2022-08-01T09:20:46.506Z,1004.78
2022-08-01T09:21:46.499Z,1004.76
2022-08-01T09:22:47.921Z,1004.78
2022-08-01T09:23:54.089Z,1004.79
2022-08-01T09:24:46.469Z,1004.76
2022-08-01T09:25:47.844Z,1004.80
2022-08-01T09:26:46.463Z,1004.76
2022-08-01T09:27:46.661Z,1004.77
2022-08-01T09:28:47.984Z,1004.77
2022-08-01T09:29:49.877Z,1004.76
2022-08-01T09:30:46.420Z,1004.77
2022-08-01T09:31:47.411Z,1004.67
2022-08-01T09:32:46.400Z,1004.73
2022-08-01T09:33:46.386Z,1004.74
2022-08-01T09:34:46.362Z,1004.73
2022-08-01T09:35:46.396Z,1004.75
2022-08-01T09:36:46.344Z,1004.77
2022-08-01T09:37:47.311Z,1004.79
2022-08-01T09:38:50.878Z,1004.77
2022-08-01T09:39:46.327Z,1004.80
2022-08-01T09:40:46.481Z,1004.77
2022-08-01T09:41:46.303Z,1004.81
2022-08-01T09:42:46.310Z,1004.81
2022-08-01T09:43:46.301Z,1004.82
2022-08-01T09:44:54.903Z,1004.84
2022-08-01T09:45:49.188Z,1004.89
2022-08-01T09:46:46.267Z,1004.85
2022-08-01T09:47:46.243Z,1004.92
2022-08-01T09:48:46.231Z,1004.90
2022-08-01T09:49:50.883Z,1004.88
2022-08-01T09:50:46.240Z,1004.89
2022-08-01T09:51:58.884Z,1004.90
2022-08-01T09:52:46.209Z,1004.91
2022-08-01T09:53:50.024Z,1004.90
2022-08-01T09:54:46.173Z,1004.93
2022-08-01T09:55:46.178Z,1004.93
2022-08-01T09:56:46.212Z,1004.94
2022-08-01T09:57:46.152Z,1004.95
2022-08-01T09:58:46.160Z,1004.94
2022-08-01T09:59:58.175Z,1004.95
2022-08-01T10:00:46.124Z,1004.94
2022-08-01T10:01:46.115Z,1004.89
2022-08-01T10:02:46.128Z,1004.94
2022-08-01T10:03:46.127Z,1004.94
2022-08-01T10:04:46.082Z,1004.93
2022-08-01T10:05:46.814Z,1004.93
2022-08-01T10:06:46.055Z,1005.03
2022-08-01T10:07:46.092Z,1004.99
2022-08-01T10:08:46.041Z,1005.05
2022-08-01T10:09:46.028Z,1005.04
2022-08-01T10:10:46.381Z,1005.09
2022-08-01T10:11:46.048Z,1005.07
2022-08-01T10:12:46.045Z,1005.13
2022-08-01T10:13:46.048Z,1005.13
2022-08-01T10:14:46.802Z,1005.14
2022-08-01T10:15:45.974Z,1005.14
2022-08-01T10:16:45.970Z,1005.18
2022-08-01T10:17:51.281Z,1005.06
2022-08-01T10:18:45.947Z,1005.08
2022-08-01T10:19:45.959Z,1005.04
2022-08-01T10:20:45.924Z,1005.04
2022-08-01T10:21:57.981Z,1005.03
2022-08-01T10:22:45.910Z,1005.00
2022-08-01T10:23:45.895Z,1005.03
2022-08-01T10:24:45.929Z,1005.00
2022-08-01T10:25:47.012Z,1005.06
2022-08-01T10:26:45.863Z,1005.07
2022-08-01T10:27:45.851Z,1005.02
2022-08-01T10:28:45.856Z,1005.05
2022-08-01T10:30:05.492Z,1005.03
2022-08-01T10:30:45.823Z,1005.05
2022-08-01T10:31:50.337Z,1004.99
2022-08-01T10:32:50.535Z,1005.07
2022-08-01T10:33:51.475Z,1005.04
2022-08-01T10:34:45.791Z,1005.07
2022-08-01T10:35:47.907Z,1005.12
2022-08-01T10:36:45.767Z,1005.03
2022-08-01T10:37:52.500Z,1005.10
2022-08-01T10:38:45.776Z,1005.04
2022-08-01T10:39:46.908Z,1005.08
2022-08-01T10:40:45.726Z,1005.09
2022-08-01T10:41:45.717Z,1005.11
2022-08-01T10:42:45.707Z,1005.11
2022-08-01T10:43:47.091Z,1005.09
2022-08-01T10:44:45.686Z,1005.15
2022-08-01T10:45:45.739Z,1005.08
2022-08-01T10:46:45.878Z,1005.07
2022-08-01T10:47:50.591Z,1005.06
2022-08-01T10:48:45.668Z,1005.05
2022-08-01T10:49:45.645Z,1005.05
2022-08-01T10:50:48.573Z,1005.04
2022-08-01T10:51:52.513Z,1005.08
2022-08-01T10:52:45.609Z,1005.10
2022-08-01T10:53:45.601Z,1005.00
2022-08-01T10:54:52.591Z,1005.02
2022-08-01T10:55:45.582Z,1004.95
2022-08-01T10:56:45.572Z,1004.99
2022-08-01T10:57:52.506Z,1005.05
2022-08-01T10:58:45.558Z,1005.05
2022-08-01T10:59:49.875Z,1005.09
2022-08-01T11:00:45.554Z,1005.08
2022-08-01T11:01:45.722Z,1005.10
2022-08-01T11:02:45.770Z,1005.03
2022-08-01T11:03:57.056Z,1005.11
2022-08-01T11:04:45.499Z,1005.09
2022-08-01T11:05:45.557Z,1005.12
2022-08-01T11:06:45.480Z,1005.12
2022-08-01T11:07:45.503Z,1005.12
2022-08-01T11:08:45.457Z,1005.08
2022-08-01T11:09:51.084Z,1005.10
2022-08-01T11:10:45.450Z,1005.06
2022-08-01T11:11:45.475Z,1005.09
2022-08-01T11:12:45.426Z,1005.08
2022-08-01T11:13:45.423Z,1005.08
2022-08-01T11:14:55.529Z,1005.08
2022-08-01T11:15:50.085Z,1005.10
2022-08-01T11:16:45.387Z,1005.09
2022-08-01T11:17:45.381Z,1005.11
2022-08-01T11:18:45.366Z,1005.13
2022-08-01T11:19:45.364Z,1005.11
2022-08-01T11:20:45.349Z,1005.07
2022-08-01T11:21:57.956Z,1005.10
2022-08-01T11:22:45.324Z,1005.10
2022-08-01T11:23:45.322Z,1005.08
2022-08-01T11:24:45.310Z,1005.09
2022-08-01T11:26:03.342Z,1005.11
2022-08-01T11:26:45.319Z,1005.14
2022-08-01T11:27:45.302Z,1005.14
2022-08-01T11:29:10.897Z,1005.14
2022-08-01T11:29:45.261Z,1005.15
2022-08-01T11:30:45.305Z,1005.14
2022-08-01T11:31:45.266Z,1005.10
2022-08-01T11:33:06.535Z,1005.22
2022-08-01T11:33:45.805Z,1005.19
2022-08-01T11:34:45.209Z,1005.23
2022-08-01T11:35:45.242Z,1005.19
2022-08-01T11:37:00.641Z,1005.20
2022-08-01T11:37:45.213Z,1005.21
2022-08-01T11:38:45.179Z,1005.19
2022-08-01T11:39:45.166Z,1005.22
2022-08-01T11:40:45.183Z,1005.22
2022-08-01T11:41:45.313Z,1005.23
2022-08-01T11:42:45.160Z,1005.22
2022-08-01T11:43:45.132Z,1005.23
2022-08-01T11:44:45.116Z,1005.26
2022-08-01T11:45:45.129Z,1005.28
2022-08-01T11:46:45.094Z,1005.25
2022-08-01T11:47:45.111Z,1005.27
2022-08-01T11:48:45.072Z,1005.33
2022-08-01T11:49:45.065Z,1005.31
2022-08-01T11:50:45.059Z,1005.32
2022-08-01T11:51:45.069Z,1005.33
2022-08-01T11:52:45.039Z,1005.30
2022-08-01T11:53:45.031Z,1005.25
2022-08-01T11:54:45.034Z,1005.31
2022-08-01T11:55:45.013Z,1005.24
2022-08-01T11:56:46.424Z,1005.30
2022-08-01T11:57:44.999Z,1005.30
2022-08-01T11:58:44.983Z,1005.30
2022-08-01T12:00:02.432Z,1005.24
2022-08-01T12:00:47.119Z,1005.26
2022-08-01T12:01:44.962Z,1005.24
2022-08-01T12:02:45.367Z,1005.25
2022-08-01T12:03:45.997Z,1005.27
2022-08-01T12:04:44.927Z,1005.30
2022-08-01T12:05:44.918Z,1005.28